sensor_id;sensor_type;location;lat;lon;timestamp;pressure;altitude;pressure_sealevel;temperature;humidity
69153;BME280;56261;51.580;4.578;2023-02-01T00:02:23;102275.72;;;5.31;100.00
69153;BME280;56261;51.580;4.578;2023-02-01T00:04:48;102272.63;;;5.24;100.00
69153;BME280;56261;51.580;4.578;2023-02-01T00:07:14;102263.94;;;5.22;100.00
69153;BME280;56261;51.580;4.578;2023-02-01T00:09:39;102255.66;;;5.14;100.00
69153;BME280;56261;51.580;4.578;2023-02-01T00:12:05;102257.16;;;5.18;100.00
69153;BME280;56261;51.580;4.578;2023-02-01T00:14:30;102257.31;;;5.29;100.00
69153;BME280;56261;51.580;4.578;2023-02-01T00:16:57;102261.34;;;5.35;100.00
69153;BME280;56261;51.580;4.578;2023-02-01T00:19:22;102247.91;;;5.38;100.00
69153;BME280;56261;51.580;4.578;2023-02-01T00:21:48;102253.84;;;5.41;100.00
69153;BME280;56261;51.580;4.578;2023-02-01T00:24:13;102240.63;;;5.41;100.00
69153;BME280;56261;51.580;4.578;2023-02-01T00:26:41;102241.81;;;5.50;100.00
69153;BME280;56261;51.580;4.578;2023-02-01T00:29:18;102236.75;;;5.47;100.00
69153;BME280;56261;51.580;4.578;2023-02-01T00:31:44;102238.88;;;5.55;100.00
69153;BME280;56261;51.580;4.578;2023-02-01T00:34:13;102231.00;;;5.40;100.00
69153;BME280;56261;51.580;4.578;2023-02-01T00:36:39;102246.34;;;5.48;100.00
69153;BME280;56261;51.580;4.578;2023-02-01T00:39:04;102237.19;;;5.27;100.00
69153;BME280;56261;51.580;4.578;2023-02-01T00:41:30;102255.00;;;5.37;100.00
69153;BME280;56261;51.580;4.578;2023-02-01T00:43:55;102258.63;;;5.36;100.00
69153;BME280;56261;51.580;4.578;2023-02-01T00:46:21;102264.09;;;5.33;100.00
69153;BME280;56261;51.580;4.578;2023-02-01T00:48:47;102252.13;;;5.28;100.00
69153;BME280;56261;51.580;4.578;2023-02-01T00:51:15;102250.00;;;5.33;100.00
69153;BME280;56261;51.580;4.578;2023-02-01T00:53:41;102251.72;;;5.34;100.00
69153;BME280;56261;51.580;4.578;2023-02-01T00:56:07;102250.84;;;5.33;100.00
69153;BME280;56261;51.580;4.578;2023-02-01T00:58:33;102243.66;;;5.35;100.00
69153;BME280;56261;51.580;4.578;2023-02-01T01:01:09;102250.00;;;5.33;100.00
69153;BME280;56261;51.580;4.578;2023-02-01T01:03:37;102246.91;;;5.26;100.00
69153;BME280;56261;51.580;4.578;2023-02-01T01:06:08;102242.06;;;5.33;100.00
69153;BME280;56261;51.580;4.578;2023-02-01T01:08:35;102246.75;;;5.29;100.00
69153;BME280;56261;51.580;4.578;2023-02-01T01:11:06;102244.56;;;5.22;100.00
69153;BME280;56261;51.580;4.578;2023-02-01T01:13:31;102241.03;;;5.08;100.00
69153;BME280;56261;51.580;4.578;2023-02-01T01:16:00;102244.22;;;5.13;100.00
69153;BME280;56261;51.580;4.578;2023-02-01T01:18:28;102244.44;;;5.10;100.00
69153;BME280;56261;51.580;4.578;2023-02-01T01:20:53;102219.34;;;5.03;100.00
69153;BME280;56261;51.580;4.578;2023-02-01T01:23:18;102243.06;;;5.17;100.00
69153;BME280;56261;51.580;4.578;2023-02-01T01:25:44;102236.66;;;5.22;100.00
69153;BME280;56261;51.580;4.578;2023-02-01T01:28:09;102232.19;;;5.22;100.00
69153;BME280;56261;51.580;4.578;2023-02-01T01:30:35;102238.06;;;5.27;100.00
69153;BME280;56261;51.580;4.578;2023-02-01T01:33:00;102232.16;;;5.36;100.00
69153;BME280;56261;51.580;4.578;2023-02-01T01:35:26;102244.63;;;5.34;100.00
69153;BME280;56261;51.580;4.578;2023-02-01T01:37:53;102232.47;;;5.45;100.00
69153;BME280;56261;51.580;4.578;2023-02-01T01:40:18;102236.94;;;5.44;100.00
69153;BME280;56261;51.580;4.578;2023-02-01T01:42:44;102229.59;;;5.35;100.00
69153;BME280;56261;51.580;4.578;2023-02-01T01:47:59;102237.44;;;5.36;100.00
69153;BME280;56261;51.580;4.578;2023-02-01T01:50:49;102236.69;;;5.34;100.00
69153;BME280;56261;51.580;4.578;2023-02-01T01:53:20;102238.59;;;5.32;100.00
69153;BME280;56261;51.580;4.578;2023-02-01T01:55:47;102244.81;;;5.31;100.00
69153;BME280;56261;51.580;4.578;2023-02-01T01:58:18;102244.41;;;5.25;100.00
69153;BME280;56261;51.580;4.578;2023-02-01T02:00:45;102241.44;;;5.29;100.00
69153;BME280;56261;51.580;4.578;2023-02-01T02:03:20;102234.97;;;5.33;100.00
69153;BME280;56261;51.580;4.578;2023-02-01T02:05:49;102229.91;;;5.30;100.00
69153;BME280;56261;51.580;4.578;2023-02-01T02:08:15;102240.41;;;5.32;100.00
69153;BME280;56261;51.580;4.578;2023-02-01T02:10:42;102233.22;;;5.34;100.00
69153;BME280;56261;51.580;4.578;2023-02-01T02:13:43;102225.56;;;5.29;100.00
69153;BME280;56261;51.580;4.578;2023-02-01T02:24:03;102207.28;;;5.39;100.00
69153;BME280;56261;51.580;4.578;2023-02-01T02:32:52;102215.09;;;5.28;100.00
69153;BME280;56261;51.580;4.578;2023-02-01T02:35:02;102201.56;;;5.32;100.00
69153;BME280;56261;51.580;4.578;2023-02-01T02:43:44;102197.84;;;5.35;100.00
69153;BME280;56261;51.580;4.578;2023-02-01T02:46:37;102190.06;;;5.46;100.00
69153;BME280;56261;51.580;4.578;2023-02-01T02:50:11;102196.09;;;5.48;100.00
69153;BME280;56261;51.580;4.578;2023-02-01T02:53:12;102194.94;;;5.52;100.00
69153;BME280;56261;51.580;4.578;2023-02-01T02:55:57;102199.06;;;5.56;100.00
69153;BME280;56261;51.580;4.578;2023-02-01T02:58:43;102197.59;;;5.52;100.00
69153;BME280;56261;51.580;4.578;2023-02-01T03:01:29;102176.69;;;5.35;100.00
69153;BME280;56261;51.580;4.578;2023-02-01T03:04:14;102205.84;;;5.48;100.00
69153;BME280;56261;51.580;4.578;2023-02-01T03:06:45;102205.19;;;5.44;100.00
69153;BME280;56261;51.580;4.578;2023-02-01T03:09:51;102203.94;;;5.50;100.00
69153;BME280;56261;51.580;4.578;2023-02-01T03:12:12;102208.66;;;5.45;100.00
69153;BME280;56261;51.580;4.578;2023-02-01T03:15:11;102213.50;;;5.38;100.00
69153;BME280;56261;51.580;4.578;2023-02-01T03:17:39;102215.53;;;5.34;100.00
69153;BME280;56261;51.580;4.578;2023-02-01T03:20:09;102218.19;;;5.34;100.00
69153;BME280;56261;51.580;4.578;2023-02-01T03:22:37;102211.53;;;5.41;100.00
69153;BME280;56261;51.580;4.578;2023-02-01T03:25:12;102207.06;;;5.42;100.00
69153;BME280;56261;51.580;4.578;2023-02-01T03:28:01;102214.16;;;5.41;100.00
69153;BME280;56261;51.580;4.578;2023-02-01T03:30:36;102199.34;;;5.39;100.00
69153;BME280;56261;51.580;4.578;2023-02-01T03:33:07;102208.22;;;5.38;100.00
69153;BME280;56261;51.580;4.578;2023-02-01T03:38:42;102213.34;;;5.41;100.00
69153;BME280;56261;51.580;4.578;2023-02-01T03:41:18;102203.34;;;5.32;100.00
69153;BME280;56261;51.580;4.578;2023-02-01T03:46:22;102205.88;;;5.33;100.00
69153;BME280;56261;51.580;4.578;2023-02-01T03:48:50;102201.47;;;5.34;100.00
69153;BME280;56261;51.580;4.578;2023-02-01T03:51:19;102201.47;;;5.34;100.00
69153;BME280;56261;51.580;4.578;2023-02-01T03:53:45;102206.63;;;5.35;100.00
69153;BME280;56261;51.580;4.578;2023-02-01T03:56:13;102207.16;;;5.28;100.00
69153;BME280;56261;51.580;4.578;2023-02-01T03:58:38;102201.03;;;5.27;100.00
69153;BME280;56261;51.580;4.578;2023-02-01T04:01:05;102199.22;;;5.28;100.00
69153;BME280;56261;51.580;4.578;2023-02-01T04:03:30;102187.88;;;5.26;100.00
69153;BME280;56261;51.580;4.578;2023-02-01T04:05:57;102189.47;;;5.28;100.00
69153;BME280;56261;51.580;4.578;2023-02-01T04:08:23;102190.00;;;5.20;100.00
69153;BME280;56261;51.580;4.578;2023-02-01T04:10:49;102182.59;;;5.26;100.00
69153;BME280;56261;51.580;4.578;2023-02-01T04:13:14;102179.75;;;5.29;100.00
69153;BME280;56261;51.580;4.578;2023-02-01T04:15:40;102174.00;;;5.22;100.00
69153;BME280;56261;51.580;4.578;2023-02-01T04:18:05;102179.00;;;5.27;100.00
69153;BME280;56261;51.580;4.578;2023-02-01T04:20:31;102186.53;;;5.33;100.00
69153;BME280;56261;51.580;4.578;2023-02-01T04:22:57;102171.94;;;5.40;100.00
69153;BME280;56261;51.580;4.578;2023-02-01T04:25:22;102182.41;;;5.41;100.00
69153;BME280;56261;51.580;4.578;2023-02-01T04:27:47;102184.22;;;5.41;100.00
69153;BME280;56261;51.580;4.578;2023-02-01T04:30:14;102189.81;;;5.36;100.00
69153;BME280;56261;51.580;4.578;2023-02-01T04:32:40;102186.47;;;5.47;100.00
69153;BME280;56261;51.580;4.578;2023-02-01T04:35:06;102196.31;;;5.45;100.00
69153;BME280;56261;51.580;4.578;2023-02-01T04:37:32;102190.25;;;5.43;100.00
69153;BME280;56261;51.580;4.578;2023-02-01T04:39:57;102194.50;;;5.46;100.00
69153;BME280;56261;51.580;4.578;2023-02-01T04:42:23;102193.00;;;5.41;100.00
69153;BME280;56261;51.580;4.578;2023-02-01T04:44:48;102188.84;;;5.25;100.00
69153;BME280;56261;51.580;4.578;2023-02-01T04:47:14;102181.22;;;5.33;100.00
69153;BME280;56261;51.580;4.578;2023-02-01T04:49:40;102196.34;;;5.31;100.00
69153;BME280;56261;51.580;4.578;2023-02-01T04:52:06;102193.22;;;5.38;100.00
69153;BME280;56261;51.580;4.578;2023-02-01T04:54:31;102195.13;;;5.36;100.00
69153;BME280;56261;51.580;4.578;2023-02-01T04:56:56;102198.19;;;5.43;100.00
69153;BME280;56261;51.580;4.578;2023-02-01T04:59:22;102203.09;;;5.49;100.00
69153;BME280;56261;51.580;4.578;2023-02-01T05:01:47;102206.13;;;5.43;100.00
69153;BME280;56261;51.580;4.578;2023-02-01T05:04:13;102196.00;;;5.50;100.00
69153;BME280;56261;51.580;4.578;2023-02-01T05:06:38;102192.25;;;5.39;100.00
69153;BME280;56261;51.580;4.578;2023-02-01T05:09:03;102194.09;;;5.52;100.00
69153;BME280;56261;51.580;4.578;2023-02-01T05:11:29;102168.44;;;5.39;100.00
69153;BME280;56261;51.580;4.578;2023-02-01T05:14:12;102184.66;;;5.48;100.00
69153;BME280;56261;51.580;4.578;2023-02-01T05:16:38;102184.25;;;5.54;100.00
69153;BME280;56261;51.580;4.578;2023-02-01T05:19:03;102167.50;;;5.40;100.00
69153;BME280;56261;51.580;4.578;2023-02-01T05:21:29;102177.03;;;5.43;100.00
69153;BME280;56261;51.580;4.578;2023-02-01T05:23:54;102184.13;;;5.43;100.00
69153;BME280;56261;51.580;4.578;2023-02-01T05:26:35;102172.38;;;5.47;100.00
69153;BME280;56261;51.580;4.578;2023-02-01T05:29:00;102176.84;;;5.59;100.00
69153;BME280;56261;51.580;4.578;2023-02-01T05:31:26;102186.78;;;5.55;100.00
69153;BME280;56261;51.580;4.578;2023-02-01T05:33:52;102183.06;;;5.45;100.00
69153;BME280;56261;51.580;4.578;2023-02-01T05:36:17;102189.66;;;5.52;100.00
69153;BME280;56261;51.580;4.578;2023-02-01T05:38:43;102189.13;;;5.47;100.00
69153;BME280;56261;51.580;4.578;2023-02-01T05:41:08;102186.22;;;5.37;100.00
69153;BME280;56261;51.580;4.578;2023-02-01T05:43:34;102183.56;;;5.37;100.00
69153;BME280;56261;51.580;4.578;2023-02-01T05:45:59;102190.13;;;5.45;100.00
69153;BME280;56261;51.580;4.578;2023-02-01T05:48:25;102189.59;;;5.39;100.00
69153;BME280;56261;51.580;4.578;2023-02-01T05:50:50;102196.94;;;5.49;100.00
69153;BME280;56261;51.580;4.578;2023-02-01T05:53:16;102196.94;;;5.49;100.00
69153;BME280;56261;51.580;4.578;2023-02-01T05:55:41;102192.50;;;5.49;100.00
69153;BME280;56261;51.580;4.578;2023-02-01T05:58:07;102204.69;;;5.52;100.00
69153;BME280;56261;51.580;4.578;2023-02-01T06:00:32;102196.94;;;5.49;100.00
69153;BME280;56261;51.580;4.578;2023-02-01T06:02:58;102202.03;;;5.52;100.00
69153;BME280;56261;51.580;4.578;2023-02-01T06:05:23;102192.59;;;5.48;100.00
69153;BME280;56261;51.580;4.578;2023-02-01T06:07:49;102192.81;;;5.57;100.00
69153;BME280;56261;51.580;4.578;2023-02-01T06:10:18;102189.97;;;5.48;100.00
69153;BME280;56261;51.580;4.578;2023-02-01T06:12:44;102194.41;;;5.60;100.00
69153;BME280;56261;51.580;4.578;2023-02-01T06:15:11;102195.69;;;5.54;100.00
69153;BME280;56261;51.580;4.578;2023-02-01T06:17:36;102201.50;;;5.59;100.00
69153;BME280;56261;51.580;4.578;2023-02-01T06:20:03;102200.75;;;5.57;100.00
69153;BME280;56261;51.580;4.578;2023-02-01T06:22:29;102203.84;;;5.64;100.00
69153;BME280;56261;51.580;4.578;2023-02-01T06:24:54;102198.97;;;5.71;100.00
69153;BME280;56261;51.580;4.578;2023-02-01T06:27:20;102207.53;;;5.61;100.00
69153;BME280;56261;51.580;4.578;2023-02-01T06:29:45;102206.16;;;5.56;100.00
69153;BME280;56261;51.580;4.578;2023-02-01T06:32:10;102207.53;;;5.61;100.00
69153;BME280;56261;51.580;4.578;2023-02-01T06:34:36;102208.50;;;5.60;100.00
69153;BME280;56261;51.580;4.578;2023-02-01T06:37:05;102209.22;;;5.62;100.00
69153;BME280;56261;51.580;4.578;2023-02-01T06:39:31;102203.31;;;5.59;100.00
69153;BME280;56261;51.580;4.578;2023-02-01T06:41:56;102204.06;;;5.61;100.00
69153;BME280;56261;51.580;4.578;2023-02-01T06:44:22;102199.19;;;5.68;100.00
69153;BME280;56261;51.580;4.578;2023-02-01T06:46:47;102208.91;;;5.54;100.00
69153;BME280;56261;51.580;4.578;2023-02-01T06:49:12;102205.97;;;5.59;100.00
69153;BME280;56261;51.580;4.578;2023-02-01T06:51:38;102203.84;;;5.64;100.00
69153;BME280;56261;51.580;4.578;2023-02-01T06:54:03;102203.00;;;5.64;100.00
69153;BME280;56261;51.580;4.578;2023-02-01T06:56:29;102199.81;;;5.58;100.00
69153;BME280;56261;51.580;4.578;2023-02-01T06:58:56;102196.13;;;5.61;100.00
69153;BME280;56261;51.580;4.578;2023-02-01T07:01:21;102196.53;;;5.55;100.00
69153;BME280;56261;51.580;4.578;2023-02-01T07:03:51;102194.09;;;5.52;100.00
69153;BME280;56261;51.580;4.578;2023-02-01T07:06:16;102195.38;;;5.59;100.00
69153;BME280;56261;51.580;4.578;2023-02-01T07:08:42;102200.56;;;5.60;100.00
69153;BME280;56261;51.580;4.578;2023-02-01T07:11:11;102199.59;;;5.61;100.00
69153;BME280;56261;51.580;4.578;2023-02-01T07:13:37;102211.34;;;5.57;100.00
69153;BME280;56261;51.580;4.578;2023-02-01T07:16:06;102216.00;;;5.54;100.00
69153;BME280;56261;51.580;4.578;2023-02-01T07:18:32;102215.38;;;5.63;100.00
69153;BME280;56261;51.580;4.578;2023-02-01T07:20:59;102212.50;;;5.53;100.00
69153;BME280;56261;51.580;4.578;2023-02-01T07:23:25;102222.16;;;5.54;100.00
69153;BME280;56261;51.580;4.578;2023-02-01T07:25:59;102215.78;;;5.57;100.00
69153;BME280;56261;51.580;4.578;2023-02-01T07:28:26;102217.03;;;5.51;100.00
69153;BME280;56261;51.580;4.578;2023-02-01T07:30:51;102221.63;;;5.49;100.00
69153;BME280;56261;51.580;4.578;2023-02-01T07:33:23;102219.06;;;5.48;100.00
69153;BME280;56261;51.580;4.578;2023-02-01T07:35:49;102210.06;;;5.50;100.00
69153;BME280;56261;51.580;4.578;2023-02-01T07:38:15;102227.19;;;5.45;100.00
69153;BME280;56261;51.580;4.578;2023-02-01T07:40:41;102219.69;;;5.51;100.00
69153;BME280;56261;51.580;4.578;2023-02-01T07:43:07;102237.59;;;5.48;100.00
69153;BME280;56261;51.580;4.578;2023-02-01T07:45:37;102235.88;;;5.47;100.00
69153;BME280;56261;51.580;4.578;2023-02-01T07:48:02;102233.66;;;5.40;100.00
69153;BME280;56261;51.580;4.578;2023-02-01T07:50:29;102240.53;;;5.56;100.00
69153;BME280;56261;51.580;4.578;2023-02-01T07:52:54;102234.94;;;5.48;100.00
69153;BME280;56261;51.580;4.578;2023-02-01T07:55:20;102251.56;;;5.50;100.00
69153;BME280;56261;51.580;4.578;2023-02-01T07:57:45;102253.56;;;5.46;100.00
69153;BME280;56261;51.580;4.578;2023-02-01T08:00:11;102259.38;;;5.51;100.00
69153;BME280;56261;51.580;4.578;2023-02-01T08:02:58;102253.69;;;5.57;100.00
69153;BME280;56261;51.580;4.578;2023-02-01T08:05:24;102250.19;;;5.57;100.00
69153;BME280;56261;51.580;4.578;2023-02-01T08:07:49;102256.28;;;5.72;100.00
69153;BME280;56261;51.580;4.578;2023-02-01T08:10:16;102244.72;;;5.73;100.00
69153;BME280;56261;51.580;4.578;2023-02-01T08:12:41;102259.66;;;5.74;100.00
69153;BME280;56261;51.580;4.578;2023-02-01T08:15:07;102259.56;;;5.88;100.00
69153;BME280;56261;51.580;4.578;2023-02-01T08:17:32;102258.22;;;5.95;100.00
69153;BME280;56261;51.580;4.578;2023-02-01T08:19:58;102252.94;;;5.95;100.00
69153;BME280;56261;51.580;4.578;2023-02-01T08:22:23;102264.94;;;6.01;100.00
69153;BME280;56261;51.580;4.578;2023-02-01T08:24:49;102261.84;;;6.07;100.00
69153;BME280;56261;51.580;4.578;2023-02-01T08:27:14;102260.81;;;6.10;100.00
69153;BME280;56261;51.580;4.578;2023-02-01T08:29:40;102245.22;;;6.18;100.00
69153;BME280;56261;51.580;4.578;2023-02-01T08:32:05;102249.03;;;6.14;100.00
69153;BME280;56261;51.580;4.578;2023-02-01T08:34:31;102245.94;;;6.20;100.00
69153;BME280;56261;51.580;4.578;2023-02-01T08:36:56;102252.50;;;6.27;100.00
69153;BME280;56261;51.580;4.578;2023-02-01T08:39:26;102253.91;;;6.20;100.00
69153;BME280;56261;51.580;4.578;2023-02-01T08:41:51;102256.22;;;6.24;100.00
69153;BME280;56261;51.580;4.578;2023-02-01T08:44:35;102236.63;;;6.27;100.00
69153;BME280;56261;51.580;4.578;2023-02-01T08:47:02;102238.84;;;6.33;100.00
69153;BME280;56261;51.580;4.578;2023-02-01T08:49:28;102229.09;;;6.34;100.00
69153;BME280;56261;51.580;4.578;2023-02-01T08:51:53;102227.31;;;6.34;100.00
69153;BME280;56261;51.580;4.578;2023-02-01T08:54:19;102225.28;;;6.38;100.00
69153;BME280;56261;51.580;4.578;2023-02-01T08:56:46;102223.38;;;6.40;100.00
69153;BME280;56261;51.580;4.578;2023-02-01T08:59:12;102193.06;;;6.31;100.00
69153;BME280;56261;51.580;4.578;2023-02-01T09:01:37;102205.56;;;6.42;100.00
69153;BME280;56261;51.580;4.578;2023-02-01T09:04:02;102211.94;;;6.39;100.00
69153;BME280;56261;51.580;4.578;2023-02-01T09:06:28;102214.56;;;6.39;100.00
69153;BME280;56261;51.580;4.578;2023-02-01T09:08:53;102207.88;;;6.47;100.00
69153;BME280;56261;51.580;4.578;2023-02-01T09:11:19;102221.78;;;6.50;100.00
69153;BME280;56261;51.580;4.578;2023-02-01T09:13:45;102216.13;;;6.55;100.00
69153;BME280;56261;51.580;4.578;2023-02-01T09:16:10;102227.81;;;6.52;100.00
69153;BME280;56261;51.580;4.578;2023-02-01T09:18:36;102227.47;;;6.57;100.00
69153;BME280;56261;51.580;4.578;2023-02-01T09:21:06;102214.31;;;6.68;100.00
69153;BME280;56261;51.580;4.578;2023-02-01T09:23:33;102221.19;;;6.71;100.00
69153;BME280;56261;51.580;4.578;2023-02-01T09:26:03;102220.00;;;6.75;100.00
69153;BME280;56261;51.580;4.578;2023-02-01T09:28:29;102220.09;;;6.86;100.00
69153;BME280;56261;51.580;4.578;2023-02-01T09:30:58;102211.78;;;6.91;100.00
69153;BME280;56261;51.580;4.578;2023-02-01T09:33:25;102195.34;;;7.10;100.00
69153;BME280;56261;51.580;4.578;2023-02-01T09:36:01;102205.19;;;7.20;100.00
69153;BME280;56261;51.580;4.578;2023-02-01T09:38:27;102207.03;;;7.07;100.00
69153;BME280;56261;51.580;4.578;2023-02-01T09:40:54;102216.47;;;7.35;100.00
69153;BME280;56261;51.580;4.578;2023-02-01T09:43:58;102204.44;;;7.42;100.00
69153;BME280;56261;51.580;4.578;2023-02-01T09:46:30;102201.59;;;7.21;100.00
69153;BME280;56261;51.580;4.578;2023-02-01T09:49:01;102225.66;;;7.18;100.00
69153;BME280;56261;51.580;4.578;2023-02-01T09:51:37;102237.69;;;7.35;100.00
69153;BME280;56261;51.580;4.578;2023-02-01T09:54:12;102227.13;;;7.46;100.00
69153;BME280;56261;51.580;4.578;2023-02-01T09:57:16;102225.28;;;7.36;100.00
69153;BME280;56261;51.580;4.578;2023-02-01T09:59:52;102229.78;;;7.22;100.00
69153;BME280;56261;51.580;4.578;2023-02-01T10:02:23;102252.56;;;7.38;100.00
69153;BME280;56261;51.580;4.578;2023-02-01T10:04:49;102243.13;;;7.34;100.00
69153;BME280;56261;51.580;4.578;2023-02-01T10:07:44;102234.41;;;7.32;100.00
69153;BME280;56261;51.580;4.578;2023-02-01T10:10:40;102236.47;;;7.28;100.00
69153;BME280;56261;51.580;4.578;2023-02-01T10:18:57;102265.25;;;7.21;100.00
69153;BME280;56261;51.580;4.578;2023-02-01T10:21:51;102264.94;;;7.26;100.00
69153;BME280;56261;51.580;4.578;2023-02-01T10:24:32;102265.25;;;7.21;100.00
69153;BME280;56261;51.580;4.578;2023-02-01T10:27:25;102253.22;;;7.28;100.00
69153;BME280;56261;51.580;4.578;2023-02-01T10:29:59;102268.31;;;7.28;100.00
69153;BME280;56261;51.580;4.578;2023-02-01T10:32:30;102252.84;;;7.22;100.00
69153;BME280;56261;51.580;4.578;2023-02-01T10:37:35;102238.16;;;7.29;100.00
69153;BME280;56261;51.580;4.578;2023-02-01T10:40:24;102231.41;;;7.36;100.00
69153;BME280;56261;51.580;4.578;2023-02-01T10:43:00;102226.34;;;7.33;100.00
69153;BME280;56261;51.580;4.578;2023-02-01T10:45:32;102217.22;;;7.37;100.00
69153;BME280;56261;51.580;4.578;2023-02-01T10:47:59;102228.66;;;7.38;100.00
69153;BME280;56261;51.580;4.578;2023-02-01T10:50:47;102222.66;;;7.47;100.00
69153;BME280;56261;51.580;4.578;2023-02-01T10:55:47;102236.78;;;7.47;100.00
69153;BME280;56261;51.580;4.578;2023-02-01T11:01:07;102219.75;;;7.50;100.00
69153;BME280;56261;51.580;4.578;2023-02-01T11:03:36;102224.13;;;7.51;100.00
69153;BME280;56261;51.580;4.578;2023-02-01T11:06:09;102205.09;;;7.57;100.00
69153;BME280;56261;51.580;4.578;2023-02-01T11:08:48;102205.19;;;7.56;100.00
69153;BME280;56261;51.580;4.578;2023-02-01T11:11:15;102193.13;;;7.63;100.00
69153;BME280;56261;51.580;4.578;2023-02-01T11:13:40;102200.03;;;7.77;100.00
69153;BME280;56261;51.580;4.578;2023-02-01T11:16:08;102198.00;;;7.69;100.00
69153;BME280;56261;51.580;4.578;2023-02-01T11:18:37;102196.78;;;7.73;100.00
69153;BME280;56261;51.580;4.578;2023-02-01T11:21:04;102192.44;;;7.83;100.00
69153;BME280;56261;51.580;4.578;2023-02-01T11:23:32;102190.50;;;7.74;100.00
69153;BME280;56261;51.580;4.578;2023-02-01T11:26:09;102229.16;;;7.78;100.00
69153;BME280;56261;51.580;4.578;2023-02-01T11:28:38;102184.34;;;7.74;100.00
69153;BME280;56261;51.580;4.578;2023-02-01T11:31:09;102197.66;;;7.85;100.00
69153;BME280;56261;51.580;4.578;2023-02-01T11:33:46;102203.22;;;7.82;100.00
69153;BME280;56261;51.580;4.578;2023-02-01T11:36:17;102193.44;;;7.82;100.00
69153;BME280;56261;51.580;4.578;2023-02-01T11:38:51;102185.00;;;7.88;100.00
69153;BME280;56261;51.580;4.578;2023-02-01T11:41:23;102185.72;;;7.90;100.00
69153;BME280;56261;51.580;4.578;2023-02-01T11:43:57;102182.44;;;7.87;100.00
69153;BME280;56261;51.580;4.578;2023-02-01T11:46:29;102195.47;;;7.90;100.00
69153;BME280;56261;51.580;4.578;2023-02-01T11:48:56;102183.44;;;7.86;100.00
69153;BME280;56261;51.580;4.578;2023-02-01T11:56:49;102188.84;;;7.96;100.00
69153;BME280;56261;51.580;4.578;2023-02-01T12:11:01;102175.34;;;8.10;100.00
69153;BME280;56261;51.580;4.578;2023-02-01T12:16:19;102167.72;;;8.17;100.00
69153;BME280;56261;51.580;4.578;2023-02-01T12:19:04;102169.19;;;8.21;100.00
69153;BME280;56261;51.580;4.578;2023-02-01T12:38:46;102182.72;;;8.29;100.00
69153;BME280;56261;51.580;4.578;2023-02-01T12:44:07;102172.19;;;8.16;100.00
69153;BME280;56261;51.580;4.578;2023-02-01T12:46:39;102160.84;;;8.14;100.00
69153;BME280;56261;51.580;4.578;2023-02-01T12:49:14;102156.50;;;8.13;100.00
69153;BME280;56261;51.580;4.578;2023-02-01T12:51:43;102148.53;;;8.13;100.00
69153;BME280;56261;51.580;4.578;2023-02-01T12:57:25;102159.28;;;8.23;100.00
69153;BME280;56261;51.580;4.578;2023-02-01T12:59:59;102157.69;;;8.31;100.00
69153;BME280;56261;51.580;4.578;2023-02-01T13:03:11;102154.19;;;8.31;100.00
69153;BME280;56261;51.580;4.578;2023-02-01T13:05:58;102169.16;;;8.32;100.00
69153;BME280;56261;51.580;4.578;2023-02-01T13:08:39;102158.31;;;8.35;100.00
69153;BME280;56261;51.580;4.578;2023-02-01T13:11:12;102149.47;;;8.35;100.00
69153;BME280;56261;51.580;4.578;2023-02-01T13:13:48;102153.94;;;8.34;100.00
69153;BME280;56261;51.580;4.578;2023-02-01T13:19:24;102162.19;;;8.42;100.00
69153;BME280;56261;51.580;4.578;2023-02-01T13:21:59;102169.53;;;8.50;100.00
69153;BME280;56261;51.580;4.578;2023-02-01T13:24:33;102166.78;;;8.40;100.00
69153;BME280;56261;51.580;4.578;2023-02-01T13:27:02;102177.63;;;8.26;100.00
69153;BME280;56261;51.580;4.578;2023-02-01T13:29:29;102157.81;;;8.07;100.00
69153;BME280;56261;51.580;4.578;2023-02-01T13:34:57;102173.28;;;8.14;100.00
69153;BME280;56261;51.580;4.578;2023-02-01T13:37:52;102174.75;;;8.06;100.00
69153;BME280;56261;51.580;4.578;2023-02-01T13:41:09;102181.97;;;8.04;100.00
69153;BME280;56261;51.580;4.578;2023-02-01T13:43:21;102177.97;;;7.99;100.00
69153;BME280;56261;51.580;4.578;2023-02-01T13:45:50;102176.41;;;8.07;100.00
69153;BME280;56261;51.580;4.578;2023-02-01T13:48:29;102164.94;;;8.07;100.00
69153;BME280;56261;51.580;4.578;2023-02-01T13:50:57;102160.72;;;8.04;100.00
69153;BME280;56261;51.580;4.578;2023-02-01T13:53:32;102165.94;;;8.17;100.00
69153;BME280;56261;51.580;4.578;2023-02-01T13:56:01;102177.50;;;8.16;100.00
69153;BME280;56261;51.580;4.578;2023-02-01T13:58:40;102171.47;;;8.03;100.00
69153;BME280;56261;51.580;4.578;2023-02-01T14:03:57;102181.16;;;8.04;100.00
69153;BME280;56261;51.580;4.578;2023-02-01T14:16:40;102150.47;;;8.00;100.00
69153;BME280;56261;51.580;4.578;2023-02-01T14:19:39;102162.41;;;7.94;100.00
69153;BME280;56261;51.580;4.578;2023-02-01T14:22:33;102157.72;;;7.98;100.00
69153;BME280;56261;51.580;4.578;2023-02-01T14:24:59;102160.25;;;7.99;100.00
69153;BME280;56261;51.580;4.578;2023-02-01T14:27:26;102150.56;;;7.98;100.00
69153;BME280;56261;51.580;4.578;2023-02-01T14:29:57;102154.81;;;8.01;100.00
69153;BME280;56261;51.580;4.578;2023-02-01T14:32:30;102147.09;;;7.98;100.00
69153;BME280;56261;51.580;4.578;2023-02-01T14:34:59;102150.56;;;7.98;100.00
69153;BME280;56261;51.580;4.578;2023-02-01T14:37:32;102169.91;;;8.00;100.00
69153;BME280;56261;51.580;4.578;2023-02-01T14:47:53;102182.56;;;7.97;100.00
69153;BME280;56261;51.580;4.578;2023-02-01T14:55:48;102181.00;;;7.94;100.00
69153;BME280;56261;51.580;4.578;2023-02-01T14:58:41;102186.56;;;7.91;100.00
69153;BME280;56261;51.580;4.578;2023-02-01T15:01:16;102177.75;;;7.90;100.00
69153;BME280;56261;51.580;4.578;2023-02-01T15:06:43;102168.91;;;7.90;100.00
69153;BME280;56261;51.580;4.578;2023-02-01T15:09:28;102185.59;;;7.92;100.00